createdAt,value
2022-10-11T00:00:07.503Z,2.63
2022-10-11T00:02:35.274Z,3.83
2022-10-11T00:05:07.121Z,4.37
2022-10-11T00:07:35.130Z,4.43
2022-10-11T00:10:04.999Z,2.57
2022-10-11T00:12:36.762Z,2.07
2022-10-11T00:15:15.667Z,3.37
2022-10-11T00:17:46.567Z,5.70
2022-10-11T00:20:25.352Z,4.10
2022-10-11T00:22:55.483Z,2.87
2022-10-11T00:25:24.112Z,2.43
2022-10-11T00:27:54.435Z,2.10
2022-10-11T00:30:24.088Z,1.83
2022-10-11T00:32:54.113Z,3.23
2022-10-11T00:35:26.694Z,3.67
2022-10-11T00:37:57.611Z,3.77
2022-10-11T00:40:25.598Z,4.33
2022-10-11T00:42:55.164Z,3.80
2022-10-11T00:46:06.560Z,2.97
2022-10-11T00:48:44.245Z,2.77
2022-10-11T00:51:25.103Z,4.47
2022-10-11T00:53:56.004Z,2.50
2022-10-11T00:56:34.068Z,1.83
2022-10-11T00:59:15.466Z,2.97
2022-10-11T01:01:45.805Z,4.83
2022-10-11T01:04:17.082Z,3.77
2022-10-11T01:06:54.048Z,3.67
2022-10-11T01:09:27.237Z,3.97
2022-10-11T01:12:01.159Z,1.97
2022-10-11T01:14:57.319Z,4.67
2022-10-11T01:17:36.823Z,5.00
2022-10-11T01:20:46.059Z,2.53
2022-10-11T01:23:56.228Z,2.90
2022-10-11T01:27:05.206Z,3.73
2022-10-11T01:29:55.551Z,2.30
2022-10-11T01:32:43.127Z,4.83
2022-10-11T01:35:24.202Z,1.97
2022-10-11T01:37:57.443Z,2.23
2022-10-11T01:40:35.050Z,3.40
2022-10-11T01:43:07.079Z,2.50
2022-10-11T01:45:37.316Z,3.53
2022-10-11T01:48:14.243Z,1.20
2022-10-11T01:50:49.587Z,3.07
2022-10-11T01:53:36.767Z,1.63
2022-10-11T01:56:23.940Z,3.47
2022-10-11T01:59:24.630Z,2.63
2022-10-11T02:02:05.020Z,1.93
2022-10-11T02:04:45.144Z,4.57
2022-10-11T02:07:33.927Z,4.23
2022-10-11T02:10:14.925Z,3.07
2022-10-11T02:12:54.331Z,3.47
2022-10-11T02:15:26.895Z,2.10
2022-10-11T02:18:05.916Z,3.70
2022-10-11T02:20:44.182Z,2.00
2022-10-11T02:23:24.950Z,2.10
2022-10-11T02:25:55.459Z,1.20
2022-10-11T02:28:34.907Z,3.27
2022-10-11T02:31:08.301Z,3.30
2022-10-11T02:33:44.372Z,1.97
2022-10-11T02:36:22.834Z,1.47
2022-10-11T02:38:59.811Z,3.93
2022-10-11T02:41:35.409Z,2.53
2022-10-11T02:44:13.660Z,2.23
2022-10-11T02:46:46.306Z,5.50
2022-10-11T02:49:17.544Z,2.87
2022-10-11T02:51:49.691Z,3.07
2022-10-11T02:54:17.866Z,2.50
2022-10-11T02:56:45.931Z,1.00
2022-10-11T02:59:17.102Z,2.93
2022-10-11T03:01:45.943Z,1.87
2022-10-11T03:04:14.478Z,3.33
2022-10-11T03:06:45.693Z,4.03
2022-10-11T03:09:24.855Z,4.83
2022-10-11T03:11:54.439Z,2.50
2022-10-11T03:14:26.951Z,2.77
2022-10-11T03:17:00.750Z,1.80
2022-10-11T03:19:47.542Z,2.17
2022-10-11T03:22:15.954Z,2.67
2022-10-11T03:24:47.179Z,2.87
2022-10-11T03:27:16.438Z,1.50
2022-10-11T03:29:45.894Z,1.80
2022-10-11T03:32:16.156Z,3.27
2022-10-11T03:34:45.768Z,1.83
2022-10-11T03:37:15.816Z,3.17
2022-10-11T03:39:47.626Z,3.67
2022-10-11T03:42:20.924Z,4.47
2022-10-11T03:44:53.355Z,1.60
2022-10-11T03:47:26.965Z,3.50
2022-10-11T03:49:57.404Z,1.63
2022-10-11T03:52:27.104Z,2.07
2022-10-11T03:54:57.779Z,3.03
2022-10-11T03:57:25.826Z,2.37
2022-10-11T03:59:56.569Z,2.93
2022-10-11T04:02:27.187Z,1.57
2022-10-11T04:05:00.194Z,2.57
2022-10-11T04:07:30.172Z,2.40
2022-10-11T04:10:05.644Z,3.77
2022-10-11T04:12:35.962Z,3.23
2022-10-11T04:15:05.705Z,2.60
2022-10-11T04:17:34.739Z,4.23
2022-10-11T04:20:05.659Z,3.63
2022-10-11T04:22:36.164Z,2.87
2022-10-11T04:25:17.190Z,2.53
2022-10-11T04:27:44.843Z,1.50
2022-10-11T04:30:13.769Z,3.53
2022-10-11T04:32:41.509Z,1.83
2022-10-11T04:35:09.915Z,1.80
2022-10-11T04:37:37.789Z,1.20
2022-10-11T04:40:08.809Z,1.97
2022-10-11T04:42:36.475Z,1.80
2022-10-11T04:45:08.970Z,1.60
2022-10-11T04:47:38.049Z,3.53
2022-10-11T04:50:06.972Z,2.00
2022-10-11T04:52:43.524Z,3.97
2022-10-11T04:55:15.675Z,3.13
2022-10-11T04:57:46.463Z,2.07
2022-10-11T05:00:17.984Z,2.07
2022-10-11T05:02:46.707Z,2.20
2022-10-11T05:05:17.628Z,4.57
2022-10-11T05:07:46.152Z,2.47
2022-10-11T05:10:17.433Z,4.17
2022-10-11T05:12:47.574Z,2.33
2022-10-11T05:15:15.579Z,3.27
2022-10-11T05:17:47.697Z,3.30
2022-10-11T05:20:16.262Z,3.53
2022-10-11T05:22:46.697Z,5.87
2022-10-11T05:25:17.827Z,3.67
2022-10-11T05:27:46.295Z,4.03
2022-10-11T05:30:16.115Z,1.97
2022-10-11T05:32:47.870Z,5.67
2022-10-11T05:35:15.847Z,4.00
2022-10-11T05:37:50.501Z,3.00
2022-10-11T05:40:26.091Z,3.37
2022-10-11T05:42:56.631Z,4.80
2022-10-11T05:45:26.791Z,4.33
2022-10-11T05:47:57.618Z,3.20
2022-10-11T05:50:26.879Z,3.20
2022-10-11T05:52:56.926Z,3.40
2022-10-11T05:55:27.019Z,3.83
2022-10-11T05:57:57.325Z,3.70
2022-10-11T06:00:26.682Z,3.20
2022-10-11T06:02:55.022Z,3.53
2022-10-11T06:05:25.925Z,6.40
2022-10-11T06:07:58.165Z,4.87
2022-10-11T06:10:37.719Z,3.87
2022-10-11T06:13:16.343Z,5.07
2022-10-11T06:15:47.536Z,6.67
2022-10-11T06:18:16.549Z,3.77
2022-10-11T06:20:46.666Z,3.73
2022-10-11T06:23:14.685Z,6.00
2022-10-11T06:25:57.232Z,6.20
2022-10-11T06:28:26.383Z,5.17
2022-10-11T06:31:00.314Z,5.43
2022-10-11T06:33:28.301Z,5.87
2022-10-11T06:36:04.189Z,7.20
2022-10-11T06:38:35.525Z,4.07
2022-10-11T06:41:18.321Z,3.40
2022-10-11T06:43:50.182Z,3.80
2022-10-11T06:46:21.811Z,3.23
2022-10-11T06:48:56.342Z,4.77
2022-10-11T06:51:28.576Z,6.63
2022-10-11T06:53:58.688Z,6.40
2022-10-11T06:56:30.321Z,3.20
2022-10-11T06:59:02.512Z,5.33
2022-10-11T07:01:36.494Z,4.37
2022-10-11T07:04:15.531Z,2.17
2022-10-11T07:06:50.655Z,2.97
2022-10-11T07:09:19.109Z,4.50
2022-10-11T07:11:51.589Z,4.30
2022-10-11T07:14:22.043Z,6.47
2022-10-11T07:16:50.381Z,4.17
2022-10-11T07:19:18.057Z,3.73
2022-10-11T07:21:48.468Z,6.10
2022-10-11T07:24:16.557Z,4.30
2022-10-11T07:26:46.624Z,8.60
2022-10-11T07:29:18.058Z,4.03
2022-10-11T07:31:46.360Z,8.80
2022-10-11T07:34:24.152Z,7.23
2022-10-11T07:36:57.795Z,4.83
2022-10-11T07:39:26.409Z,11.83
2022-10-11T07:41:56.126Z,8.07
2022-10-11T07:44:27.680Z,5.80
2022-10-11T07:46:58.294Z,8.23
2022-10-11T07:49:26.337Z,12.10
2022-10-11T07:51:57.050Z,9.03
2022-10-11T07:54:27.728Z,5.77
2022-10-11T07:56:58.509Z,7.17
2022-10-11T07:59:28.157Z,7.03
2022-10-11T08:01:56.550Z,4.80
2022-10-11T08:04:27.859Z,7.47
2022-10-11T08:06:57.077Z,6.87
2022-10-11T08:09:26.864Z,6.47
2022-10-11T08:11:55.923Z,3.13
2022-10-11T08:14:35.473Z,7.77
2022-10-11T08:17:06.329Z,5.67
2022-10-11T08:19:35.888Z,4.90
2022-10-11T08:22:07.922Z,5.47
2022-10-11T08:24:38.469Z,7.07
2022-10-11T08:27:06.708Z,3.47
2022-10-11T08:29:46.928Z,6.20
2022-10-11T08:32:17.028Z,5.33
2022-10-11T08:34:48.562Z,7.03
2022-10-11T08:37:16.413Z,6.87
2022-10-11T08:39:47.152Z,4.00
2022-10-11T08:42:27.839Z,7.23
2022-10-11T08:45:12.354Z,4.13
2022-10-11T08:47:48.395Z,7.40
2022-10-11T08:50:25.053Z,6.33
2022-10-11T08:52:58.408Z,6.63
2022-10-11T08:55:35.412Z,4.63
2022-10-11T08:58:16.829Z,3.17
2022-10-11T09:00:56.522Z,10.53
2022-10-11T09:03:37.896Z,3.67
2022-10-11T09:06:16.379Z,3.00
2022-10-11T09:09:06.240Z,5.53
2022-10-11T09:11:55.604Z,5.53
2022-10-11T09:14:47.923Z,3.67
2022-10-11T09:17:36.634Z,4.37
2022-10-11T09:20:45.522Z,2.23
2022-10-11T09:23:46.158Z,5.40
2022-10-11T09:26:32.366Z,2.30
2022-10-11T09:29:16.145Z,5.67
2022-10-11T09:31:48.591Z,5.63
2022-10-11T09:34:37.065Z,4.10
2022-10-11T09:37:19.075Z,4.07
2022-10-11T09:39:54.446Z,6.03
2022-10-11T09:42:26.715Z,5.30
2022-10-11T09:44:57.343Z,6.10
2022-10-11T09:47:28.292Z,3.43
2022-10-11T09:50:06.546Z,5.70
2022-10-11T09:52:48.654Z,5.17
2022-10-11T09:55:36.774Z,5.57
2022-10-11T09:58:26.135Z,4.77
2022-10-11T10:00:58.675Z,5.03
2022-10-11T10:03:32.769Z,4.43
2022-10-11T10:06:27.139Z,5.87
2022-10-11T10:09:26.922Z,3.80
2022-10-11T10:11:58.262Z,6.13
2022-10-11T10:14:34.769Z,8.13
2022-10-11T10:17:08.147Z,9.20
2022-10-11T10:19:46.510Z,4.53
2022-10-11T10:22:26.988Z,7.37
2022-10-11T10:24:58.477Z,5.20
2022-10-11T10:27:28.017Z,5.67
2022-10-11T10:30:22.605Z,4.27
2022-10-11T10:33:07.339Z,2.77
2022-10-11T10:35:47.176Z,3.90
2022-10-11T10:38:27.229Z,2.93
2022-10-11T10:41:01.105Z,4.60
2022-10-11T10:43:35.021Z,2.27
2022-10-11T10:46:50.814Z,5.53
2022-10-11T10:49:54.480Z,3.27
2022-10-11T10:52:55.769Z,3.63
2022-10-11T10:55:36.647Z,5.57
2022-10-11T10:58:24.610Z,5.30
2022-10-11T11:00:59.695Z,4.27
2022-10-11T11:03:36.130Z,4.33
2022-10-11T11:06:08.631Z,5.23
2022-10-11T11:08:52.924Z,3.10
2022-10-11T11:11:41.006Z,5.67
2022-10-11T11:14:25.383Z,9.43
2022-10-11T11:17:06.685Z,2.73
2022-10-11T11:19:47.878Z,5.20
2022-10-11T11:22:30.398Z,4.63
2022-10-11T11:25:16.923Z,5.60
2022-10-11T11:28:09.671Z,2.43
2022-10-11T11:30:53.684Z,5.87
2022-10-11T11:33:36.739Z,3.20
2022-10-11T11:36:16.091Z,4.43
2022-10-11T11:38:57.129Z,10.10
2022-10-11T11:41:32.650Z,3.17
2022-10-11T11:44:15.896Z,5.10
2022-10-11T11:46:49.123Z,2.47
2022-10-11T11:49:25.651Z,3.70
2022-10-11T11:51:56.704Z,5.03
2022-10-11T11:54:45.955Z,5.00
2022-10-11T11:57:26.847Z,3.17
2022-10-11T12:00:05.775Z,6.23
2022-10-11T12:02:48.821Z,3.13
2022-10-11T12:05:25.813Z,4.80
2022-10-11T12:08:03.080Z,2.47
2022-10-11T12:10:38.382Z,5.93
2022-10-11T12:13:32.188Z,3.67
2022-10-11T12:16:19.844Z,5.63
2022-10-11T12:18:54.519Z,7.90
2022-10-11T12:21:38.217Z,4.23
2022-10-11T12:24:16.866Z,4.33
2022-10-11T12:26:47.707Z,4.20
2022-10-11T12:29:46.182Z,4.60
2022-10-11T12:32:56.802Z,6.30
2022-10-11T12:36:00.398Z,3.83
2022-10-11T12:38:37.727Z,4.70
2022-10-11T12:41:57.281Z,4.70
2022-10-11T12:44:27.710Z,3.23
2022-10-11T12:47:28.347Z,2.63
2022-10-11T12:50:17.779Z,4.57
2022-10-11T12:53:08.099Z,5.27
2022-10-11T12:55:46.926Z,3.13
2022-10-11T12:58:28.139Z,5.83
2022-10-11T13:01:27.170Z,4.43
2022-10-11T13:04:09.479Z,5.73
2022-10-11T13:06:47.072Z,4.00
2022-10-11T13:09:37.897Z,5.43
2022-10-11T13:12:17.009Z,3.03
2022-10-11T13:15:07.575Z,4.73
2022-10-11T13:17:38.799Z,5.63
2022-10-11T13:20:17.203Z,2.67
2022-10-11T13:22:49.717Z,4.40
2022-10-11T13:25:26.065Z,3.10
2022-10-11T13:27:58.509Z,2.93
2022-10-11T13:30:29.511Z,5.00
2022-10-11T13:33:00.971Z,4.63
2022-10-11T13:35:39.505Z,5.23
2022-10-11T13:38:11.532Z,4.50
2022-10-11T13:40:50.143Z,3.67
2022-10-11T13:43:27.330Z,4.00
2022-10-11T13:46:07.612Z,3.93
2022-10-11T13:48:46.309Z,4.00
2022-10-11T13:51:32.162Z,6.00
2022-10-11T13:54:06.126Z,2.47
2022-10-11T13:56:47.610Z,7.00
2022-10-11T13:59:24.778Z,6.03
2022-10-11T14:02:14.160Z,4.43
2022-10-11T14:04:48.981Z,3.77
2022-10-11T14:07:28.800Z,5.23
2022-10-11T14:09:57.757Z,7.83
2022-10-11T14:12:45.046Z,6.47
2022-10-11T14:15:27.175Z,4.30
2022-10-11T14:17:57.902Z,4.73
2022-10-11T14:20:38.047Z,4.63
2022-10-11T14:23:08.176Z,3.70
2022-10-11T14:25:37.684Z,3.17
2022-10-11T14:28:19.442Z,3.60
2022-10-11T14:30:47.935Z,2.30
2022-10-11T14:33:17.642Z,4.70
2022-10-11T14:35:46.214Z,6.43
2022-10-11T14:38:17.440Z,3.60
2022-10-11T14:40:48.286Z,4.73
2022-10-11T14:43:17.719Z,10.00
2022-10-11T14:45:46.305Z,3.43
2022-10-11T14:48:50.173Z,6.80
2022-10-11T14:51:23.495Z,2.17
2022-10-11T14:53:55.546Z,6.83
2022-10-11T14:56:26.156Z,3.83
2022-10-11T14:59:06.109Z,3.23
2022-10-11T15:01:56.273Z,3.67
2022-10-11T15:04:28.679Z,5.73
2022-10-11T15:07:01.890Z,9.37
2022-10-11T15:09:40.335Z,3.13
2022-10-11T15:12:13.035Z,3.07
2022-10-11T15:14:46.231Z,4.27
2022-10-11T15:17:18.883Z,3.67
2022-10-11T15:19:47.584Z,3.23
2022-10-11T15:22:16.308Z,4.93
2022-10-11T15:24:51.535Z,3.07
2022-10-11T15:27:27.639Z,6.37
2022-10-11T15:29:57.479Z,5.20
2022-10-11T15:32:28.266Z,3.70
2022-10-11T15:34:58.920Z,3.47
2022-10-11T15:37:27.464Z,3.27
2022-10-11T15:39:57.797Z,4.17
2022-10-11T15:42:27.783Z,5.67
2022-10-11T15:44:58.864Z,5.77
2022-10-11T15:47:27.319Z,3.23
2022-10-11T15:49:58.020Z,4.47
2022-10-11T15:52:28.510Z,10.10
2022-10-11T15:54:57.926Z,4.93
2022-10-11T15:57:27.966Z,2.00
2022-10-11T15:59:56.972Z,2.43
2022-10-11T16:02:28.870Z,4.63
2022-10-11T16:04:58.236Z,7.97
2022-10-11T16:07:27.454Z,5.53
2022-10-11T16:09:59.999Z,9.07
2022-10-11T16:12:27.957Z,4.40
2022-10-11T16:14:57.954Z,5.47
2022-10-11T16:17:27.657Z,4.33
2022-10-11T16:19:58.061Z,5.17
2022-10-11T16:22:27.764Z,5.27
2022-10-11T16:24:56.513Z,5.70
2022-10-11T16:27:28.497Z,6.93
2022-10-11T16:29:59.679Z,4.37
2022-10-11T16:32:28.426Z,3.43
2022-10-11T16:34:56.153Z,6.17
2022-10-11T16:37:27.924Z,7.87
2022-10-11T16:39:59.414Z,5.30
2022-10-11T16:42:29.993Z,4.47
2022-10-11T16:45:03.811Z,7.47
2022-10-11T16:47:32.783Z,5.30
2022-10-11T16:50:01.031Z,5.23
2022-10-11T16:52:28.820Z,4.10
2022-10-11T16:54:58.872Z,3.53
2022-10-11T16:57:26.600Z,4.43
2022-10-11T16:59:54.707Z,3.30
2022-10-11T17:02:28.758Z,1.50
2022-10-11T17:04:59.152Z,3.40
2022-10-11T17:07:27.218Z,4.87
2022-10-11T17:09:55.296Z,6.17
2022-10-11T17:12:29.306Z,4.13
2022-10-11T17:14:58.067Z,6.37
2022-10-11T17:17:33.521Z,6.20
2022-10-11T17:20:07.304Z,5.67
2022-10-11T17:22:38.201Z,4.73
2022-10-11T17:25:09.777Z,8.37
2022-10-11T17:27:38.574Z,6.37
2022-10-11T17:30:08.734Z,6.00
2022-10-11T17:32:39.845Z,5.70
2022-10-11T17:35:08.452Z,7.17
2022-10-11T17:37:42.235Z,4.87
2022-10-11T17:40:16.814Z,4.57
2022-10-11T17:42:48.760Z,6.80
2022-10-11T17:45:18.826Z,4.80
2022-10-11T17:47:49.849Z,5.00
2022-10-11T17:50:22.477Z,5.67
2022-10-11T17:52:50.448Z,6.67
2022-10-11T17:55:19.054Z,6.67
2022-10-11T17:57:48.227Z,3.67
2022-10-11T18:00:25.766Z,4.93
2022-10-11T18:02:59.013Z,4.73
2022-10-11T18:05:28.514Z,7.43
2022-10-11T18:08:00.011Z,6.73
2022-10-11T18:10:28.486Z,5.90
2022-10-11T18:13:12.027Z,3.77
2022-10-11T18:15:50.212Z,6.07
2022-10-11T18:18:27.502Z,8.27
2022-10-11T18:21:00.499Z,8.80
2022-10-11T18:23:28.297Z,6.20
2022-10-11T18:26:01.045Z,6.53
2022-10-11T18:28:30.071Z,8.87
2022-10-11T18:31:00.409Z,9.37
2022-10-11T18:33:29.860Z,9.23
2022-10-11T18:36:11.852Z,8.23
2022-10-11T18:38:48.995Z,8.97
2022-10-11T18:41:19.955Z,10.77
2022-10-11T18:43:52.098Z,9.90
2022-10-11T18:46:27.912Z,8.23
2022-10-11T18:49:04.257Z,7.10
2022-10-11T18:51:36.966Z,3.50
2022-10-11T18:54:08.936Z,5.43
2022-10-11T18:56:38.378Z,10.73
2022-10-11T19:02:17.172Z,6.00
2022-10-11T19:04:59.032Z,5.53
2022-10-11T19:07:29.336Z,9.00
2022-10-11T19:10:05.056Z,7.13
2022-10-11T19:12:38.289Z,5.77
2022-10-11T19:15:08.094Z,7.63
2022-10-11T19:17:38.627Z,6.40
2022-10-11T19:20:15.962Z,4.83
2022-10-11T19:22:50.201Z,8.37
2022-10-11T19:25:18.720Z,9.13
2022-10-11T19:27:49.422Z,5.67
2022-10-11T19:30:18.398Z,5.10
2022-10-11T19:32:48.686Z,5.03
2022-10-11T19:35:20.081Z,5.33
2022-10-11T19:37:49.269Z,6.13
2022-10-11T19:40:19.776Z,5.13
2022-10-11T19:42:50.570Z,4.53
2022-10-11T19:45:18.627Z,5.23
2022-10-11T19:47:48.200Z,4.07
2022-10-11T19:50:20.327Z,8.23
2022-10-11T19:52:51.952Z,3.00
2022-10-11T19:55:19.997Z,3.87
2022-10-11T19:57:49.658Z,6.40
2022-10-11T20:00:19.042Z,3.10
2022-10-11T20:02:49.948Z,5.33
2022-10-11T20:05:23.504Z,4.23
2022-10-11T20:07:56.051Z,6.87
2022-10-11T20:10:29.610Z,4.13
2022-10-11T20:13:00.679Z,4.60
2022-10-11T20:15:28.481Z,6.10
2022-10-11T20:17:59.628Z,3.03
2022-10-11T20:20:29.292Z,4.57
2022-10-11T20:22:58.315Z,4.33
2022-10-11T20:25:27.491Z,6.87
2022-10-11T20:27:58.211Z,6.27
2022-10-11T20:30:32.442Z,4.43
2022-10-11T20:33:00.121Z,6.40
2022-10-11T20:35:39.567Z,4.50
2022-10-11T20:38:10.070Z,4.03
2022-10-11T20:40:48.959Z,8.47
2022-10-11T20:43:20.035Z,7.83
2022-10-11T20:45:59.806Z,13.07
2022-10-11T20:48:29.686Z,9.70
2022-10-11T20:51:00.087Z,7.80
2022-10-11T20:53:29.937Z,8.73
2022-10-11T20:55:58.652Z,6.77
2022-10-11T20:58:28.594Z,9.23
2022-10-11T21:01:00.677Z,9.37
2022-10-11T21:03:28.675Z,13.77
2022-10-11T21:06:02.317Z,13.67
2022-10-11T21:11:05.416Z,12.60
2022-10-11T21:13:37.589Z,13.43
2022-10-11T21:16:12.979Z,10.03
2022-10-11T21:18:48.349Z,12.43
2022-10-11T21:21:19.561Z,9.70
2022-10-11T21:23:50.064Z,15.00
2022-10-11T21:26:18.982Z,13.33
2022-10-11T21:28:50.103Z,15.87
2022-10-11T21:31:20.870Z,21.17
2022-10-11T21:33:51.691Z,13.10
2022-10-11T21:36:27.187Z,14.13
2022-10-11T21:39:00.918Z,14.33
2022-10-11T21:41:30.248Z,10.40
2022-10-11T21:43:58.945Z,11.03
2022-10-11T21:47:04.954Z,19.33
2022-10-11T21:49:19.748Z,13.03
2022-10-11T21:51:49.617Z,12.17
2022-10-11T21:54:18.937Z,11.23
2022-10-11T21:56:48.773Z,11.40
2022-10-11T21:59:16.650Z,12.57
2022-10-11T22:01:47.581Z,12.70
2022-10-11T22:04:19.320Z,10.17
2022-10-11T22:06:49.150Z,10.60
2022-10-11T22:09:18.800Z,10.63
2022-10-11T22:11:49.730Z,9.03
2022-10-11T22:14:22.789Z,11.43
2022-10-11T22:16:50.484Z,8.33
2022-10-11T22:19:18.142Z,8.93
2022-10-11T22:21:46.088Z,9.07
2022-10-11T22:24:18.477Z,7.87
2022-10-11T22:26:49.090Z,10.20
2022-10-11T22:29:33.202Z,6.57
2022-10-11T22:32:08.806Z,6.40
2022-10-11T22:34:37.471Z,6.43
2022-10-11T22:37:05.155Z,10.33
2022-10-11T22:39:32.790Z,4.80
2022-10-11T22:42:01.818Z,6.03
2022-10-11T22:44:29.494Z,6.33
2022-10-11T22:46:57.843Z,8.00
2022-10-11T22:49:30.055Z,6.27
2022-10-11T22:51:58.896Z,6.63
2022-10-11T22:54:29.770Z,5.70
2022-10-11T22:57:02.970Z,8.03
2022-10-11T22:59:38.750Z,6.33
2022-10-11T23:02:08.806Z,5.63
2022-10-11T23:04:38.766Z,4.37
2022-10-11T23:07:10.048Z,4.73
2022-10-11T23:09:38.948Z,5.17
2022-10-11T23:12:09.451Z,6.37
2022-10-11T23:14:37.109Z,6.40
2022-10-11T23:17:09.018Z,6.63
2022-10-11T23:19:40.335Z,5.90
2022-10-11T23:22:10.005Z,5.97
2022-10-11T23:24:39.050Z,5.93
2022-10-11T23:27:10.093Z,6.17
2022-10-11T23:29:40.085Z,4.40
2022-10-11T23:32:18.978Z,5.40
2022-10-11T23:34:48.544Z,7.70
2022-10-11T23:37:18.744Z,4.50
2022-10-11T23:39:49.881Z,6.03
2022-10-11T23:42:24.423Z,6.13
2022-10-11T23:44:56.989Z,6.90
2022-10-11T23:47:28.067Z,6.57
2022-10-11T23:49:58.217Z,5.57
2022-10-11T23:52:25.882Z,4.23
2022-10-11T23:54:58.505Z,5.57
2022-10-11T23:57:30.895Z,7.60
2022-10-11T23:59:58.836Z,3.70
